createdAt,value
2019-03-29T00:01:59.867Z,8.03
2019-03-29T00:04:27.527Z,8.40
2019-03-29T00:06:55.019Z,8.80
2019-03-29T00:09:22.820Z,8.48
2019-03-29T00:11:50.362Z,8.68
2019-03-29T00:14:18.467Z,8.78
2019-03-29T00:16:46.135Z,8.60
2019-03-29T00:19:24.014Z,8.80
2019-03-29T00:21:51.909Z,8.33
2019-03-29T00:24:20.032Z,8.18
2019-03-29T00:26:47.849Z,8.68
2019-03-29T00:29:15.486Z,8.00
2019-03-29T00:31:43.445Z,8.28
2019-03-29T00:34:11.207Z,8.70
2019-03-29T00:36:38.799Z,8.03
2019-03-29T00:39:06.722Z,8.35
2019-03-29T00:41:37.650Z,8.08
2019-03-29T00:44:05.534Z,8.78
2019-03-29T00:46:33.372Z,8.08
2019-03-29T00:49:01.237Z,7.67
2019-03-29T00:51:29.193Z,8.45
2019-03-29T00:53:56.722Z,8.55
2019-03-29T00:56:24.302Z,8.05
2019-03-29T00:58:51.968Z,7.33
2019-03-29T01:01:19.698Z,7.30
2019-03-29T01:03:47.435Z,8.48
2019-03-29T01:06:15.722Z,7.85
2019-03-29T01:08:43.581Z,7.80
2019-03-29T01:11:11.587Z,8.18
2019-03-29T01:13:39.675Z,8.40
2019-03-29T01:16:07.403Z,8.18
2019-03-29T01:18:34.980Z,8.15
2019-03-29T01:21:02.616Z,8.58
2019-03-29T01:23:30.375Z,7.70
2019-03-29T01:25:58.380Z,7.78
2019-03-29T01:28:27.051Z,7.30
2019-03-29T01:30:57.202Z,7.10
2019-03-29T01:33:25.315Z,7.95
2019-03-29T01:35:53.830Z,7.72
2019-03-29T01:38:24.063Z,7.30
2019-03-29T01:40:53.331Z,6.87
2019-03-29T01:43:20.898Z,6.97
2019-03-29T01:45:48.469Z,7.37
2019-03-29T01:48:17.858Z,7.53
2019-03-29T01:50:45.372Z,7.62
2019-03-29T01:53:13.011Z,7.83
2019-03-29T01:55:40.752Z,7.33
2019-03-29T01:58:08.582Z,8.05
2019-03-29T02:00:36.538Z,7.22
2019-03-29T02:03:04.682Z,8.23
2019-03-29T02:05:32.447Z,8.65
2019-03-29T02:08:00.231Z,8.88
2019-03-29T02:10:28.342Z,8.38
2019-03-29T02:13:00.645Z,7.53
2019-03-29T02:15:29.047Z,7.50
2019-03-29T02:17:58.257Z,7.85
2019-03-29T02:20:26.659Z,8.30
2019-03-29T02:22:54.597Z,7.90
2019-03-29T02:25:22.400Z,7.65
2019-03-29T02:27:50.558Z,8.05
2019-03-29T02:30:18.313Z,7.92
2019-03-29T02:32:46.329Z,8.20
2019-03-29T02:35:14.047Z,8.05
2019-03-29T02:37:41.700Z,8.65
2019-03-29T02:40:09.332Z,8.00
2019-03-29T02:42:36.846Z,8.55
2019-03-29T02:45:05.243Z,8.95
2019-03-29T02:47:33.578Z,8.90
2019-03-29T02:50:01.308Z,9.80
2019-03-29T02:52:28.970Z,10.23
2019-03-29T02:54:56.622Z,9.88
2019-03-29T02:57:24.180Z,10.85
2019-03-29T02:59:53.117Z,10.45
2019-03-29T03:02:20.762Z,10.63
2019-03-29T03:04:49.361Z,10.38
2019-03-29T03:07:17.021Z,10.48
2019-03-29T03:09:44.604Z,11.10
2019-03-29T03:12:12.247Z,11.50
2019-03-29T03:14:39.869Z,11.43
2019-03-29T03:17:07.558Z,12.35
2019-03-29T03:19:35.215Z,12.18
2019-03-29T03:22:06.082Z,11.95
2019-03-29T03:24:33.729Z,12.50
2019-03-29T03:27:01.617Z,12.35
2019-03-29T03:29:29.619Z,12.28
2019-03-29T03:31:57.174Z,12.10
2019-03-29T03:34:25.011Z,13.43
2019-03-29T03:36:52.657Z,13.10
2019-03-29T03:39:31.367Z,14.85
2019-03-29T03:41:50.199Z,13.35
2019-03-29T03:44:19.580Z,13.58
2019-03-29T03:46:47.184Z,16.35
2019-03-29T03:49:14.808Z,16.65
2019-03-29T03:51:43.019Z,17.17
2019-03-29T03:54:11.182Z,16.62
2019-03-29T03:56:38.891Z,17.80
2019-03-29T03:59:07.136Z,16.05
2019-03-29T04:01:35.023Z,18.87
2019-03-29T04:04:02.656Z,16.93
2019-03-29T04:06:30.638Z,16.50
2019-03-29T04:08:58.559Z,17.23
2019-03-29T04:11:26.985Z,17.02
2019-03-29T04:13:54.748Z,18.20
2019-03-29T04:16:23.367Z,19.35
2019-03-29T04:18:51.347Z,17.95
2019-03-29T04:21:19.213Z,18.48
2019-03-29T04:23:46.833Z,18.35
2019-03-29T04:26:14.512Z,18.52
2019-03-29T04:28:44.907Z,17.82
2019-03-29T04:31:12.527Z,17.23
2019-03-29T04:33:40.215Z,17.77
2019-03-29T04:36:07.974Z,18.23
2019-03-29T04:38:35.595Z,17.52
2019-03-29T04:41:03.649Z,17.77
2019-03-29T04:43:31.488Z,17.15
2019-03-29T04:45:59.006Z,18.05
2019-03-29T04:48:27.780Z,17.98
2019-03-29T04:50:55.299Z,17.15
2019-03-29T04:53:22.863Z,18.37
2019-03-29T04:55:50.582Z,18.05
2019-03-29T04:58:18.151Z,17.67
2019-03-29T05:00:45.854Z,16.85
2019-03-29T05:03:14.020Z,16.30
2019-03-29T05:05:43.546Z,17.48
2019-03-29T05:08:11.500Z,16.95
2019-03-29T05:10:39.498Z,17.32
2019-03-29T05:13:07.216Z,16.70
2019-03-29T05:15:34.885Z,16.93
2019-03-29T05:18:02.866Z,17.27
2019-03-29T05:20:30.836Z,16.27
2019-03-29T05:22:59.523Z,17.23
2019-03-29T05:25:27.185Z,16.37
2019-03-29T05:27:54.739Z,16.12
2019-03-29T05:30:22.287Z,16.60
2019-03-29T05:32:50.163Z,15.38
2019-03-29T05:35:18.759Z,15.08
2019-03-29T05:37:46.576Z,16.37
2019-03-29T05:40:14.382Z,14.75
2019-03-29T05:42:42.450Z,15.50
2019-03-29T05:45:10.544Z,17.00
2019-03-29T05:47:38.466Z,14.43
2019-03-29T05:50:06.650Z,14.10
2019-03-29T05:52:34.251Z,13.85
2019-03-29T05:55:02.099Z,13.62
2019-03-29T05:57:29.723Z,13.35
2019-03-29T05:59:57.283Z,13.25
2019-03-29T06:02:24.969Z,13.53
2019-03-29T06:04:52.962Z,12.20
2019-03-29T06:07:20.780Z,13.20
2019-03-29T06:09:48.354Z,12.98
2019-03-29T06:12:16.241Z,14.00
2019-03-29T06:14:43.828Z,12.55
2019-03-29T06:17:11.794Z,14.30
2019-03-29T06:19:39.984Z,14.63
2019-03-29T06:22:07.655Z,13.93
2019-03-29T06:24:35.603Z,15.23
2019-03-29T06:27:03.660Z,15.18
2019-03-29T06:29:31.491Z,16.02
2019-03-29T06:31:59.129Z,16.15
2019-03-29T06:34:26.950Z,14.80
2019-03-29T06:36:57.051Z,14.73
2019-03-29T06:39:26.240Z,14.83
2019-03-29T06:41:53.946Z,14.43
2019-03-29T06:44:21.522Z,15.25
2019-03-29T06:46:49.355Z,16.05
2019-03-29T06:49:17.094Z,16.37
2019-03-29T06:51:47.714Z,15.20
2019-03-29T06:54:15.780Z,15.70
2019-03-29T06:56:44.807Z,16.52
2019-03-29T06:59:12.742Z,15.80
2019-03-29T07:01:40.863Z,15.10
2019-03-29T07:04:08.502Z,16.15
2019-03-29T07:06:37.667Z,16.67
2019-03-29T07:09:05.837Z,16.87
2019-03-29T07:11:33.744Z,17.57
2019-03-29T07:14:01.430Z,17.02
2019-03-29T07:16:29.355Z,16.87
2019-03-29T07:18:56.988Z,16.20
2019-03-29T07:21:25.214Z,17.20
2019-03-29T07:23:53.109Z,16.70
2019-03-29T07:26:21.281Z,19.23
2019-03-29T07:28:48.884Z,17.17
2019-03-29T07:31:17.965Z,17.40
2019-03-29T07:33:45.606Z,17.60
2019-03-29T07:36:13.375Z,18.92
2019-03-29T07:38:41.173Z,19.05
2019-03-29T07:41:09.647Z,17.23
2019-03-29T07:43:37.430Z,18.82
2019-03-29T07:46:05.097Z,18.17
2019-03-29T07:48:33.076Z,18.32
2019-03-29T07:51:00.864Z,17.52
2019-03-29T07:53:28.537Z,17.95
2019-03-29T07:55:56.413Z,17.50
2019-03-29T07:58:24.200Z,17.30
2019-03-29T08:00:52.097Z,17.67
2019-03-29T08:03:21.355Z,16.57
2019-03-29T08:05:49.736Z,18.30
2019-03-29T08:08:24.258Z,15.65
2019-03-29T08:10:47.838Z,16.23
2019-03-29T08:13:16.197Z,15.28
2019-03-29T08:15:44.521Z,17.17
2019-03-29T08:18:12.282Z,17.23
2019-03-29T08:20:43.801Z,15.88
2019-03-29T08:23:09.728Z,17.45
2019-03-29T08:25:37.333Z,17.32
2019-03-29T08:28:05.478Z,16.80
2019-03-29T08:30:33.917Z,16.37
2019-03-29T08:33:01.588Z,17.15
2019-03-29T08:35:29.606Z,17.92
2019-03-29T08:37:57.419Z,17.73
2019-03-29T08:40:25.003Z,18.07
2019-03-29T08:42:52.591Z,17.48
2019-03-29T08:45:20.260Z,17.55
2019-03-29T08:47:47.919Z,18.23
2019-03-29T08:50:15.968Z,18.15
2019-03-29T08:52:44.277Z,18.30
2019-03-29T08:55:12.235Z,16.82
2019-03-29T08:57:39.948Z,15.60
2019-03-29T09:00:08.017Z,17.35
2019-03-29T09:02:35.867Z,16.55
2019-03-29T09:05:04.576Z,15.40
2019-03-29T09:07:43.899Z,16.60
2019-03-29T09:10:04.717Z,16.73
2019-03-29T09:12:32.366Z,16.55
2019-03-29T09:15:03.394Z,15.72
2019-03-29T09:17:30.750Z,15.88
2019-03-29T09:19:58.314Z,17.05
2019-03-29T09:22:25.947Z,17.62
2019-03-29T09:24:53.926Z,15.70
2019-03-29T09:27:22.000Z,16.70
2019-03-29T09:29:50.029Z,17.82
2019-03-29T09:32:17.698Z,16.05
2019-03-29T09:34:45.277Z,17.12
2019-03-29T09:37:13.025Z,16.27
2019-03-29T09:39:41.018Z,16.97
2019-03-29T09:42:09.806Z,17.42
2019-03-29T09:44:37.726Z,17.60
2019-03-29T09:47:05.276Z,18.35
2019-03-29T09:49:33.046Z,18.17
2019-03-29T09:52:01.299Z,18.62
2019-03-29T09:54:29.313Z,18.80
2019-03-29T09:56:56.881Z,19.60
2019-03-29T09:59:24.653Z,19.80
2019-03-29T10:01:54.001Z,19.87
2019-03-29T10:04:21.830Z,20.70
2019-03-29T10:06:51.991Z,20.72
2019-03-29T10:09:19.906Z,19.45
2019-03-29T10:11:47.542Z,20.62
2019-03-29T10:14:15.244Z,20.15
2019-03-29T10:16:42.996Z,20.50
2019-03-29T10:19:11.162Z,21.48
2019-03-29T10:21:38.734Z,20.62
2019-03-29T10:24:06.359Z,20.80
2019-03-29T10:26:34.088Z,21.17
2019-03-29T10:29:01.728Z,21.35
2019-03-29T10:31:32.470Z,22.15
2019-03-29T10:34:01.464Z,21.85
2019-03-29T10:36:29.354Z,22.70
2019-03-29T10:38:57.354Z,22.50
2019-03-29T10:41:25.844Z,23.40
2019-03-29T10:43:54.578Z,22.45
2019-03-29T10:46:22.769Z,23.47
2019-03-29T10:48:50.497Z,23.38
2019-03-29T10:51:18.635Z,24.65
2019-03-29T10:53:46.576Z,22.93
2019-03-29T10:56:14.266Z,21.82
2019-03-29T10:58:44.846Z,22.32
2019-03-29T11:01:11.928Z,22.30
2019-03-29T11:03:39.487Z,23.57
2019-03-29T11:06:07.183Z,22.50
2019-03-29T11:08:34.859Z,23.77
2019-03-29T11:11:03.008Z,24.18
2019-03-29T11:13:30.779Z,23.80
2019-03-29T11:15:58.514Z,22.65
2019-03-29T11:18:26.045Z,23.90
2019-03-29T11:20:54.787Z,24.63
2019-03-29T11:23:23.313Z,25.70
2019-03-29T11:25:51.068Z,24.55
2019-03-29T11:28:18.907Z,25.10
2019-03-29T11:30:46.802Z,25.88
2019-03-29T11:33:14.572Z,23.83
2019-03-29T11:35:42.444Z,25.27
2019-03-29T11:38:10.327Z,27.35
2019-03-29T11:40:38.123Z,26.40
2019-03-29T11:43:05.788Z,26.80
2019-03-29T11:45:34.307Z,25.95
2019-03-29T11:48:08.883Z,27.15
2019-03-29T11:50:32.188Z,27.13
2019-03-29T11:53:00.391Z,26.42
2019-03-29T11:55:28.044Z,27.37
2019-03-29T11:57:56.123Z,25.57
2019-03-29T12:00:35.585Z,26.55
2019-03-29T12:03:04.134Z,26.75
2019-03-29T12:05:31.930Z,26.57
2019-03-29T12:08:00.746Z,27.30
2019-03-29T12:10:28.842Z,27.90
2019-03-29T12:12:56.511Z,26.20
2019-03-29T12:15:24.245Z,27.93
2019-03-29T12:17:51.939Z,25.48
2019-03-29T12:20:19.757Z,24.82
2019-03-29T12:22:47.326Z,27.85
2019-03-29T12:25:14.982Z,24.32
2019-03-29T12:27:43.011Z,25.25
2019-03-29T12:30:11.390Z,26.65
2019-03-29T12:32:39.257Z,27.93
2019-03-29T12:35:09.828Z,28.75
2019-03-29T12:37:36.484Z,28.10
2019-03-29T12:40:05.877Z,27.93
2019-03-29T12:42:33.536Z,28.32
2019-03-29T12:45:01.066Z,29.50
2019-03-29T12:47:28.760Z,29.48
2019-03-29T12:49:56.455Z,30.20
2019-03-29T12:52:24.442Z,29.40
2019-03-29T12:54:52.087Z,29.40
2019-03-29T12:57:19.757Z,29.10
2019-03-29T12:59:48.528Z,29.77
2019-03-29T13:02:17.295Z,28.85
2019-03-29T13:04:47.112Z,26.05
2019-03-29T13:07:17.643Z,27.93
2019-03-29T13:09:45.302Z,28.32
2019-03-29T13:12:13.063Z,30.15
2019-03-29T13:14:40.677Z,28.00
2019-03-29T13:17:08.297Z,28.20
2019-03-29T13:19:35.872Z,29.12
2019-03-29T13:22:05.911Z,28.77
2019-03-29T13:24:33.602Z,28.15
2019-03-29T13:27:02.145Z,28.83
2019-03-29T13:29:29.665Z,26.45
2019-03-29T13:31:57.693Z,30.35
2019-03-29T13:34:25.320Z,28.50
2019-03-29T13:36:53.243Z,27.80
2019-03-29T13:39:20.855Z,28.80
2019-03-29T13:41:48.535Z,29.00
2019-03-29T13:44:23.854Z,30.50
2019-03-29T13:46:46.618Z,28.95
2019-03-29T13:49:14.500Z,28.98
2019-03-29T13:51:42.139Z,28.15
2019-03-29T13:54:10.014Z,29.27
2019-03-29T13:56:38.800Z,30.10
2019-03-29T13:59:06.559Z,30.25
2019-03-29T14:01:34.281Z,29.52
2019-03-29T14:04:01.855Z,27.95
2019-03-29T14:06:29.391Z,29.82
2019-03-29T14:08:57.045Z,28.47
2019-03-29T14:11:24.762Z,27.82
2019-03-29T14:13:52.346Z,28.12
2019-03-29T14:16:19.874Z,31.00
2019-03-29T14:18:47.390Z,29.07
2019-03-29T14:21:14.969Z,29.18
2019-03-29T14:23:42.891Z,29.75
2019-03-29T14:26:10.422Z,28.15
2019-03-29T14:28:38.479Z,28.32
2019-03-29T14:31:06.024Z,28.75
2019-03-29T14:33:34.054Z,27.90
2019-03-29T14:36:01.624Z,28.95
2019-03-29T14:38:29.187Z,27.02
2019-03-29T14:40:56.770Z,27.75
2019-03-29T14:43:24.411Z,26.40
2019-03-29T14:45:52.299Z,28.25
2019-03-29T14:48:20.300Z,26.17
2019-03-29T14:50:47.975Z,24.80
2019-03-29T14:53:16.394Z,26.27
2019-03-29T14:55:43.930Z,28.40
2019-03-29T14:58:11.466Z,25.68
2019-03-29T15:00:41.151Z,26.48
2019-03-29T15:03:09.187Z,26.70
2019-03-29T15:05:37.371Z,26.50
2019-03-29T15:08:05.044Z,28.38
2019-03-29T15:10:33.960Z,27.67
2019-03-29T15:13:01.703Z,26.40
2019-03-29T15:15:29.430Z,25.45
2019-03-29T15:17:57.179Z,24.92
2019-03-29T15:20:24.733Z,26.17
2019-03-29T15:22:52.491Z,25.32
2019-03-29T15:25:20.433Z,26.48
2019-03-29T15:27:48.299Z,23.15
2019-03-29T15:30:18.145Z,25.85
2019-03-29T15:32:45.774Z,25.55
2019-03-29T15:35:13.438Z,26.02
2019-03-29T15:37:41.086Z,27.40
2019-03-29T15:40:09.228Z,25.95
2019-03-29T15:42:37.044Z,26.00
2019-03-29T15:45:04.947Z,25.48
2019-03-29T15:47:32.599Z,27.52
2019-03-29T15:50:00.533Z,27.45
2019-03-29T15:52:28.192Z,28.47
2019-03-29T15:54:56.561Z,26.70
2019-03-29T15:57:24.532Z,27.07
2019-03-29T15:59:52.444Z,27.10
2019-03-29T16:02:20.497Z,31.35
2019-03-29T16:04:48.035Z,28.45
2019-03-29T16:07:15.591Z,28.87
2019-03-29T16:09:44.273Z,28.23
2019-03-29T16:12:12.060Z,30.12
2019-03-29T16:14:39.607Z,27.87
2019-03-29T16:17:07.323Z,28.80
2019-03-29T16:19:35.100Z,29.67
2019-03-29T16:22:05.869Z,28.10
2019-03-29T16:24:32.398Z,28.55
2019-03-29T16:27:00.334Z,28.02
2019-03-29T16:29:27.924Z,25.88
2019-03-29T16:31:55.942Z,26.52
2019-03-29T16:34:23.975Z,26.73
2019-03-29T16:36:51.554Z,32.45
2019-03-29T16:39:19.186Z,27.15
2019-03-29T16:41:46.834Z,27.25
2019-03-29T16:44:14.359Z,28.85
2019-03-29T16:46:41.935Z,27.07
2019-03-29T16:49:10.675Z,26.55
2019-03-29T16:51:38.533Z,26.60
2019-03-29T16:54:07.307Z,29.45
2019-03-29T16:56:35.216Z,26.02
2019-03-29T16:59:03.189Z,30.68
2019-03-29T17:01:30.853Z,28.95
2019-03-29T17:03:58.727Z,28.38
2019-03-29T17:06:26.391Z,26.35
2019-03-29T17:08:53.999Z,26.12
2019-03-29T17:11:21.718Z,28.98
2019-03-29T17:13:49.596Z,28.25
2019-03-29T17:16:29.686Z,29.32
2019-03-29T17:18:49.304Z,28.05
2019-03-29T17:21:16.853Z,25.75
2019-03-29T17:23:45.082Z,26.27
2019-03-29T17:26:12.833Z,25.45
2019-03-29T17:28:40.578Z,25.95
2019-03-29T17:31:09.653Z,26.37
2019-03-29T17:33:37.268Z,23.98
2019-03-29T17:36:05.021Z,26.02
2019-03-29T17:38:33.247Z,26.25
2019-03-29T17:41:00.869Z,24.95
2019-03-29T17:43:28.584Z,25.60
2019-03-29T17:45:56.215Z,26.48
2019-03-29T17:48:23.895Z,26.17
2019-03-29T17:50:51.546Z,25.80
2019-03-29T17:53:19.123Z,28.47
2019-03-29T17:55:46.771Z,26.57
2019-03-29T17:58:14.444Z,26.52
2019-03-29T18:00:42.534Z,26.42
2019-03-29T18:03:10.140Z,25.88
2019-03-29T18:05:37.909Z,26.00
2019-03-29T18:08:05.638Z,25.95
2019-03-29T18:10:33.543Z,26.40
2019-03-29T18:13:01.340Z,26.02
2019-03-29T18:15:29.129Z,24.87
2019-03-29T18:17:57.779Z,26.87
2019-03-29T18:20:25.495Z,26.20
2019-03-29T18:22:53.250Z,25.92
2019-03-29T18:25:22.857Z,27.82
2019-03-29T18:27:50.683Z,25.12
2019-03-29T18:30:30.020Z,30.37
2019-03-29T18:32:58.182Z,27.70
2019-03-29T18:35:26.180Z,27.50
2019-03-29T18:37:54.000Z,28.75
2019-03-29T18:40:26.144Z,29.65
2019-03-29T18:42:54.256Z,31.02
2019-03-29T18:45:22.226Z,40.98
2019-03-29T18:47:50.328Z,32.95
2019-03-29T18:50:20.842Z,38.35
2019-03-29T18:52:48.540Z,39.38
2019-03-29T18:55:16.929Z,33.83
2019-03-29T18:57:44.528Z,37.60
2019-03-29T19:00:12.612Z,34.48
2019-03-29T19:02:40.148Z,37.08
2019-03-29T19:05:14.047Z,38.17
2019-03-29T19:07:41.914Z,37.13
2019-03-29T19:10:09.732Z,32.73
2019-03-29T19:12:37.860Z,29.18
2019-03-29T19:15:05.860Z,28.67
2019-03-29T19:17:34.025Z,28.77
2019-03-29T19:20:01.814Z,28.92
2019-03-29T19:22:29.646Z,29.90
2019-03-29T19:24:57.622Z,30.77
2019-03-29T19:27:26.415Z,28.15
2019-03-29T19:29:53.979Z,28.47
2019-03-29T19:32:22.093Z,28.98
2019-03-29T19:34:50.411Z,27.50
2019-03-29T19:37:18.250Z,28.87
2019-03-29T19:39:45.924Z,30.82
2019-03-29T19:42:16.624Z,30.80
2019-03-29T19:44:43.712Z,30.27
2019-03-29T19:47:13.733Z,31.23
2019-03-29T19:49:41.594Z,33.53
2019-03-29T19:52:09.200Z,31.00
2019-03-29T19:54:37.213Z,31.07
2019-03-29T19:57:04.994Z,35.73
2019-03-29T19:59:32.972Z,32.17
2019-03-29T20:02:00.574Z,35.03
2019-03-29T20:04:28.493Z,37.93
2019-03-29T20:06:56.396Z,31.55
2019-03-29T20:09:24.014Z,34.85
2019-03-29T20:11:52.271Z,31.12
2019-03-29T20:14:19.959Z,35.95
2019-03-29T20:16:47.606Z,37.08
2019-03-29T20:19:15.570Z,40.60
2019-03-29T20:21:43.953Z,31.73
2019-03-29T20:24:11.562Z,36.20
2019-03-29T20:26:39.804Z,33.65
2019-03-29T20:29:10.844Z,36.53
2019-03-29T20:31:38.765Z,35.92
2019-03-29T20:34:06.632Z,33.30
2019-03-29T20:36:35.081Z,34.05
2019-03-29T20:39:05.681Z,35.45
2019-03-29T20:41:33.940Z,35.65
2019-03-29T20:44:01.731Z,35.43
2019-03-29T20:46:29.394Z,34.00
2019-03-29T20:48:57.439Z,34.80
2019-03-29T20:51:25.059Z,36.30
2019-03-29T20:53:52.599Z,37.42
2019-03-29T20:56:20.424Z,36.05
2019-03-29T20:58:48.019Z,37.63
2019-03-29T21:01:16.181Z,35.73
2019-03-29T21:03:44.477Z,36.55
2019-03-29T21:06:12.081Z,37.53
2019-03-29T21:08:39.870Z,36.42
2019-03-29T21:11:07.440Z,37.00
2019-03-29T21:13:35.203Z,38.30
2019-03-29T21:16:03.179Z,39.25
2019-03-29T21:18:31.082Z,37.48
2019-03-29T21:20:58.918Z,36.60
2019-03-29T21:23:30.977Z,37.95
2019-03-29T21:25:58.606Z,38.53
2019-03-29T21:28:26.604Z,36.88
2019-03-29T21:30:57.648Z,37.83
2019-03-29T21:33:25.821Z,38.92
2019-03-29T21:35:53.964Z,37.78
2019-03-29T21:38:21.964Z,38.10
2019-03-29T21:40:50.239Z,38.13
2019-03-29T21:43:17.958Z,39.35
2019-03-29T21:45:45.609Z,40.73
2019-03-29T21:48:27.990Z,37.53
2019-03-29T21:50:44.509Z,38.48
2019-03-29T21:53:12.220Z,38.50
2019-03-29T21:55:40.143Z,38.02
2019-03-29T21:58:08.391Z,38.45
2019-03-29T22:00:35.932Z,41.00
2019-03-29T22:03:03.608Z,37.75
2019-03-29T22:05:31.421Z,41.50
2019-03-29T22:07:59.299Z,41.53
2019-03-29T22:10:26.859Z,41.55
2019-03-29T22:12:54.552Z,38.67
2019-03-29T22:15:22.645Z,39.18
2019-03-29T22:17:55.109Z,39.48
2019-03-29T22:20:22.858Z,39.75
2019-03-29T22:22:51.001Z,40.38
2019-03-29T22:25:18.995Z,41.13
2019-03-29T22:27:46.555Z,38.78
2019-03-29T22:30:14.699Z,40.70
2019-03-29T22:32:42.400Z,40.33
2019-03-29T22:35:10.366Z,46.35
2019-03-29T22:37:38.397Z,38.48
2019-03-29T22:40:07.772Z,39.05
2019-03-29T22:42:35.414Z,38.40
2019-03-29T22:45:04.486Z,37.30
2019-03-29T22:47:35.982Z,37.75
2019-03-29T22:50:04.063Z,36.80
2019-03-29T22:52:32.634Z,39.25
2019-03-29T22:55:00.560Z,38.30
2019-03-29T22:57:28.392Z,38.65
2019-03-29T22:59:55.992Z,39.98
2019-03-29T23:02:23.801Z,38.65
2019-03-29T23:04:51.848Z,36.20
2019-03-29T23:07:19.519Z,37.63
2019-03-29T23:09:47.488Z,37.83
2019-03-29T23:12:15.187Z,37.35
2019-03-29T23:14:43.029Z,37.93
2019-03-29T23:17:10.756Z,38.23
2019-03-29T23:19:38.402Z,39.83
2019-03-29T23:22:06.222Z,39.03
2019-03-29T23:24:33.835Z,37.17
2019-03-29T23:27:01.830Z,37.85
2019-03-29T23:29:29.490Z,37.70
2019-03-29T23:31:57.574Z,36.42
2019-03-29T23:34:28.836Z,37.90
2019-03-29T23:36:56.788Z,38.98
2019-03-29T23:39:27.042Z,37.75
2019-03-29T23:41:54.914Z,39.08
2019-03-29T23:44:28.554Z,39.78
2019-03-29T23:46:57.341Z,39.92
2019-03-29T23:49:25.342Z,39.30
2019-03-29T23:51:53.782Z,38.38
2019-03-29T23:54:21.730Z,41.00
2019-03-29T23:56:49.386Z,41.25
2019-03-29T23:59:17.071Z,40.03
